createdAt,value
2019-04-14T00:02:01.443Z,1.90
2019-04-14T00:06:11.912Z,1.90
2019-04-14T00:10:22.653Z,1.80
2019-04-14T00:14:33.640Z,1.80
2019-04-14T00:18:44.734Z,1.80
2019-04-14T00:22:55.520Z,1.80
2019-04-14T00:27:06.403Z,1.80
2019-04-14T00:31:17.340Z,1.80
2019-04-14T00:35:32.713Z,1.80
2019-04-14T00:39:44.646Z,1.80
2019-04-14T00:43:59.490Z,1.80
2019-04-14T00:48:16.615Z,1.80
2019-04-14T00:52:25.471Z,1.80
2019-04-14T00:56:36.867Z,1.70
2019-04-14T01:00:47.953Z,1.70
2019-04-14T01:05:00.036Z,1.70
2019-04-14T01:09:13.049Z,1.70
2019-04-14T01:13:24.537Z,1.70
2019-04-14T01:17:35.273Z,1.70
2019-04-14T01:21:45.775Z,1.70
2019-04-14T01:25:56.526Z,1.70
2019-04-14T01:30:11.170Z,1.80
2019-04-14T01:34:21.726Z,1.80
2019-04-14T01:38:32.058Z,1.90
2019-04-14T01:42:42.279Z,1.90
2019-04-14T01:46:52.584Z,1.90
2019-04-14T01:51:13.604Z,1.90
2019-04-14T01:55:44.132Z,1.90
2019-04-14T01:59:54.717Z,1.90
2019-04-14T02:04:05.056Z,1.90
2019-04-14T02:08:16.112Z,1.90
2019-04-14T02:12:27.783Z,1.90
2019-04-14T02:16:44.484Z,1.90
2019-04-14T02:20:51.183Z,2.00
2019-04-14T02:25:01.812Z,2.10
2019-04-14T02:29:12.758Z,2.10
2019-04-14T02:34:00.781Z,2.10
2019-04-14T02:38:12.312Z,2.20
2019-04-14T02:42:27.685Z,2.20
2019-04-14T02:46:34.505Z,2.20
2019-04-14T02:50:38.521Z,2.30
2019-04-14T02:59:00.085Z,2.30
2019-04-14T03:03:16.467Z,2.30
2019-04-14T03:11:43.980Z,2.30
2019-04-14T03:15:56.873Z,2.40
2019-04-14T03:24:30.834Z,2.30
2019-04-14T03:28:51.391Z,2.40
2019-04-14T03:37:24.086Z,2.40
2019-04-14T03:45:44.142Z,2.30
2019-04-14T03:53:57.576Z,2.40
2019-04-14T03:57:45.504Z,2.30
2019-04-14T04:01:56.614Z,2.30
2019-04-14T04:06:07.544Z,2.40
2019-04-14T04:10:19.152Z,2.40
2019-04-14T04:14:29.710Z,2.40
2019-04-14T04:18:50.932Z,2.50
2019-04-14T04:23:03.087Z,2.50
2019-04-14T04:27:27.261Z,2.60
2019-04-14T04:31:46.116Z,2.60
2019-04-14T04:36:01.125Z,2.70
2019-04-14T04:40:13.592Z,2.70
2019-04-14T04:44:24.807Z,2.70
2019-04-14T04:48:35.252Z,2.70
2019-04-14T04:52:45.713Z,2.70
2019-04-14T04:56:56.060Z,2.70
2019-04-14T05:01:07.663Z,2.80
2019-04-14T05:05:53.946Z,2.90
2019-04-14T05:10:13.188Z,2.90
2019-04-14T05:14:28.348Z,3.00
2019-04-14T05:18:39.646Z,3.00
2019-04-14T05:22:50.828Z,3.10
2019-04-14T05:27:01.434Z,3.10
2019-04-14T05:31:12.164Z,3.20
2019-04-14T05:35:22.755Z,3.20
2019-04-14T05:39:33.078Z,3.30
2019-04-14T05:43:50.211Z,3.30
2019-04-14T05:47:56.492Z,3.40
2019-04-14T05:52:07.754Z,3.40
2019-04-14T05:56:18.662Z,3.40
2019-04-14T06:00:29.972Z,3.40
2019-04-14T06:04:40.409Z,3.50
2019-04-14T06:08:50.902Z,3.60
2019-04-14T06:13:01.093Z,3.60
2019-04-14T06:17:12.073Z,3.70
2019-04-14T06:21:22.676Z,3.80
2019-04-14T06:25:32.979Z,3.90
2019-04-14T06:29:43.353Z,3.80
2019-04-14T06:33:57.052Z,3.80
2019-04-14T06:38:09.007Z,3.90
2019-04-14T06:42:19.628Z,4.00
2019-04-14T06:46:29.925Z,3.90
2019-04-14T06:50:41.857Z,3.90
2019-04-14T06:54:52.315Z,3.90
2019-04-14T06:59:02.936Z,3.90
2019-04-14T07:03:13.381Z,3.90
2019-04-14T07:07:24.799Z,3.80
2019-04-14T07:11:35.423Z,3.70
2019-04-14T07:15:45.717Z,3.80
2019-04-14T07:20:02.276Z,3.90
2019-04-14T07:24:08.012Z,4.00
2019-04-14T07:28:18.484Z,3.80
2019-04-14T07:32:45.745Z,3.80
2019-04-14T07:36:57.699Z,3.80
2019-04-14T07:41:15.808Z,3.70
2019-04-14T07:45:30.361Z,3.60
2019-04-14T07:49:57.289Z,3.50
2019-04-14T07:54:11.859Z,3.40
2019-04-14T07:58:24.019Z,3.50
2019-04-14T08:02:35.955Z,3.50
2019-04-14T08:06:48.009Z,3.20
2019-04-14T08:10:58.851Z,3.20
2019-04-14T08:15:09.667Z,3.20
2019-04-14T08:19:19.995Z,3.20
2019-04-14T08:23:30.599Z,3.30
2019-04-14T08:27:40.935Z,3.30
2019-04-14T08:31:51.323Z,3.40
2019-04-14T08:36:01.667Z,3.30
2019-04-14T08:40:12.113Z,3.40
2019-04-14T08:44:35.762Z,3.50
2019-04-14T08:48:47.639Z,3.50
2019-04-14T08:53:02.429Z,3.50
2019-04-14T08:57:20.527Z,3.50
2019-04-14T09:01:35.609Z,3.40
2019-04-14T09:05:47.619Z,3.50
2019-04-14T09:10:02.307Z,3.60
2019-04-14T09:14:13.026Z,3.70
2019-04-14T09:18:23.236Z,3.70
2019-04-14T09:22:33.547Z,3.80
2019-04-14T09:26:45.095Z,3.70
2019-04-14T09:30:56.004Z,3.70
2019-04-14T09:35:07.046Z,3.70
2019-04-14T09:39:17.303Z,3.80
2019-04-14T09:43:27.776Z,3.90
2019-04-14T09:47:38.091Z,3.90
2019-04-14T09:51:48.962Z,3.80
2019-04-14T09:55:59.427Z,3.90
2019-04-14T10:00:11.278Z,3.80
2019-04-14T10:04:21.663Z,3.70
2019-04-14T10:08:31.951Z,3.70
2019-04-14T10:12:42.564Z,3.80
2019-04-14T10:16:52.871Z,3.90
2019-04-14T10:21:03.403Z,3.90
2019-04-14T10:25:13.827Z,3.90
2019-04-14T10:29:24.270Z,3.90
2019-04-14T10:33:34.594Z,3.80
2019-04-14T10:37:46.292Z,3.70
2019-04-14T10:41:56.842Z,3.70
2019-04-14T10:46:07.234Z,3.70
2019-04-14T10:50:29.901Z,3.70
2019-04-14T10:54:29.449Z,3.70
2019-04-14T10:58:39.782Z,3.70
2019-04-14T11:02:50.384Z,3.60
2019-04-14T11:07:11.302Z,3.60
2019-04-14T11:11:22.398Z,3.70
2019-04-14T11:15:32.679Z,3.80
2019-04-14T11:19:43.003Z,3.90
2019-04-14T11:23:53.449Z,3.90
2019-04-14T11:28:03.989Z,3.70
2019-04-14T11:32:18.631Z,3.70
2019-04-14T11:36:46.736Z,3.70
2019-04-14T11:41:00.749Z,3.60
2019-04-14T11:45:11.834Z,3.70
2019-04-14T11:49:22.295Z,3.60
2019-04-14T11:53:32.574Z,3.70
2019-04-14T11:57:45.410Z,3.80
2019-04-14T12:01:57.290Z,3.90
2019-04-14T12:06:18.718Z,3.90
2019-04-14T12:10:28.979Z,3.90
2019-04-14T12:14:39.205Z,3.80
2019-04-14T12:18:49.857Z,3.90
2019-04-14T12:23:00.212Z,3.90
2019-04-14T12:27:10.569Z,3.90
2019-04-14T12:31:21.836Z,3.90
2019-04-14T12:35:32.297Z,4.00
2019-04-14T12:39:43.503Z,4.10
2019-04-14T12:43:55.502Z,4.10
2019-04-14T12:48:07.757Z,4.10
2019-04-14T12:52:22.562Z,4.20
2019-04-14T12:56:32.900Z,4.30
2019-04-14T13:00:51.363Z,4.40
2019-04-14T13:05:01.928Z,4.50
2019-04-14T13:09:14.600Z,4.50
2019-04-14T13:13:24.925Z,4.50
2019-04-14T13:17:35.266Z,4.60
2019-04-14T13:21:47.064Z,4.60
2019-04-14T13:25:57.397Z,4.60
2019-04-14T13:30:10.611Z,4.70
2019-04-14T13:34:20.965Z,4.70
2019-04-14T13:38:31.253Z,4.70
2019-04-14T13:42:41.450Z,4.70
2019-04-14T13:46:52.268Z,4.80
2019-04-14T13:51:03.148Z,4.80
2019-04-14T13:55:14.570Z,4.90
2019-04-14T13:59:24.856Z,4.80
2019-04-14T14:03:35.288Z,4.90
2019-04-14T14:07:45.694Z,4.90
2019-04-14T14:12:03.519Z,4.90
2019-04-14T14:16:30.727Z,5.00
2019-04-14T14:20:46.532Z,5.00
2019-04-14T14:25:01.188Z,5.00
2019-04-14T14:29:12.535Z,5.10
2019-04-14T14:33:22.870Z,5.10
2019-04-14T14:37:33.387Z,5.10
2019-04-14T14:41:43.771Z,5.20
2019-04-14T14:45:58.743Z,5.30
2019-04-14T14:50:26.952Z,5.40
2019-04-14T14:54:37.358Z,5.50
2019-04-14T14:58:47.582Z,5.50
2019-04-14T15:02:57.936Z,5.50
2019-04-14T15:07:08.442Z,5.60
2019-04-14T15:11:18.986Z,5.60
2019-04-14T15:15:29.365Z,5.70
2019-04-14T15:19:44.136Z,5.80
2019-04-14T15:23:55.279Z,5.80
2019-04-14T15:28:05.655Z,5.90
2019-04-14T15:32:15.998Z,5.90
2019-04-14T15:36:26.299Z,6.00
2019-04-14T15:40:36.711Z,6.10
2019-04-14T15:44:47.067Z,6.20
2019-04-14T15:48:57.392Z,6.30
2019-04-14T15:53:08.032Z,6.30
2019-04-14T15:57:38.367Z,6.30
2019-04-14T16:01:55.932Z,6.30
2019-04-14T16:06:17.345Z,6.40
2019-04-14T16:10:31.960Z,6.50
2019-04-14T16:14:43.946Z,6.50
2019-04-14T16:18:58.718Z,6.50
2019-04-14T16:23:09.078Z,6.50
2019-04-14T16:27:21.346Z,6.50
2019-04-14T16:31:49.141Z,6.50
2019-04-14T16:35:59.792Z,6.50
2019-04-14T16:40:10.344Z,6.60
2019-04-14T16:44:20.708Z,6.60
2019-04-14T16:48:31.084Z,6.60
2019-04-14T16:52:45.863Z,6.70
2019-04-14T16:57:17.099Z,6.60
2019-04-14T17:01:29.230Z,6.60
2019-04-14T17:05:39.446Z,6.60
2019-04-14T17:09:49.714Z,6.70
2019-04-14T17:14:07.469Z,6.70
2019-04-14T17:18:22.436Z,6.60
2019-04-14T17:22:43.147Z,6.60
2019-04-14T17:26:57.951Z,6.50
2019-04-14T17:31:09.943Z,6.50
2019-04-14T17:35:39.628Z,6.60
2019-04-14T17:39:54.259Z,6.60
2019-04-14T17:44:06.490Z,6.60
2019-04-14T17:48:34.606Z,6.50
2019-04-14T17:52:52.364Z,6.50
2019-04-14T17:57:16.017Z,6.50
2019-04-14T18:01:31.022Z,6.40
2019-04-14T18:05:42.870Z,6.40
2019-04-14T18:09:54.835Z,6.30
2019-04-14T18:14:10.174Z,6.30
2019-04-14T18:18:22.173Z,6.20
2019-04-14T18:22:33.073Z,6.20
2019-04-14T18:26:43.969Z,6.20
2019-04-14T18:30:56.342Z,6.20
2019-04-14T18:35:08.268Z,6.20
2019-04-14T18:39:20.237Z,6.20
2019-04-14T18:43:35.180Z,6.30
2019-04-14T18:47:49.308Z,6.30
2019-04-14T18:52:05.117Z,6.30
2019-04-14T18:56:34.193Z,6.30
2019-04-14T19:00:47.426Z,6.40
2019-04-14T19:04:58.478Z,6.30
2019-04-14T19:09:08.874Z,6.40
2019-04-14T19:13:27.640Z,6.40
2019-04-14T19:17:56.339Z,6.40
2019-04-14T19:22:06.754Z,6.50
2019-04-14T19:26:17.038Z,6.50
2019-04-14T19:30:27.659Z,6.50
2019-04-14T19:34:37.996Z,6.60
2019-04-14T19:38:48.342Z,6.60
2019-04-14T19:42:58.849Z,6.70
2019-04-14T19:47:09.265Z,6.70
2019-04-14T19:51:19.463Z,6.70
2019-04-14T19:55:29.873Z,6.70
2019-04-14T19:59:40.280Z,6.70
2019-04-14T20:03:50.500Z,6.70
2019-04-14T20:08:02.217Z,6.70
2019-04-14T20:12:13.210Z,6.60
2019-04-14T20:16:31.301Z,6.60
2019-04-14T20:20:43.343Z,6.50
2019-04-14T20:24:55.404Z,6.50
2019-04-14T20:29:09.918Z,6.50
2019-04-14T20:33:20.251Z,6.50
2019-04-14T20:37:30.687Z,6.50
2019-04-14T20:41:41.461Z,6.50
2019-04-14T20:45:51.862Z,6.50
2019-04-14T20:50:02.420Z,6.50
2019-04-14T20:54:13.429Z,6.60
2019-04-14T20:58:23.670Z,6.60
2019-04-14T21:02:35.614Z,6.70
2019-04-14T21:06:47.573Z,6.70
2019-04-14T21:11:15.792Z,6.80
2019-04-14T21:15:30.135Z,6.80
2019-04-14T21:19:50.952Z,6.90
2019-04-14T21:24:10.310Z,6.90
2019-04-14T21:28:37.861Z,6.90
2019-04-14T21:32:50.122Z,7.00
2019-04-14T21:37:02.058Z,7.00
2019-04-14T21:41:24.814Z,6.90
2019-04-14T21:45:35.082Z,6.90
2019-04-14T21:49:47.906Z,6.90
2019-04-14T21:53:58.333Z,6.90
2019-04-14T21:58:10.401Z,6.90
2019-04-14T22:02:39.355Z,6.90
2019-04-14T22:06:54.010Z,6.80
2019-04-14T22:11:09.039Z,6.80
2019-04-14T22:15:19.233Z,6.80
2019-04-14T22:19:30.327Z,6.80
2019-04-14T22:23:40.842Z,6.80
2019-04-14T22:27:51.169Z,6.80
2019-04-14T22:32:18.949Z,6.80
2019-04-14T22:36:29.238Z,6.80
2019-04-14T22:40:39.417Z,6.80
2019-04-14T22:44:49.657Z,6.80
2019-04-14T22:49:01.650Z,6.80
2019-04-14T22:53:11.923Z,6.70
2019-04-14T22:57:22.222Z,6.70
2019-04-14T23:01:34.268Z,6.60
2019-04-14T23:05:51.978Z,6.60
2019-04-14T23:10:04.262Z,6.60
2019-04-14T23:14:16.420Z,6.60
2019-04-14T23:18:28.542Z,6.60
2019-04-14T23:22:49.080Z,6.50
2019-04-14T23:26:59.494Z,6.50
2019-04-14T23:31:09.806Z,6.50
2019-04-14T23:35:20.111Z,6.50
2019-04-14T23:39:30.949Z,6.50
2019-04-14T23:43:41.238Z,6.40
2019-04-14T23:47:51.738Z,6.40
2019-04-14T23:52:02.416Z,6.30
2019-04-14T23:56:12.691Z,6.30
